Al Udeid, Qatar

5:23 AM AST on October 21, 2014 (GMT +0300)
Al Waab | Change Station
CLOSE
Current Station
Personal Weather Station
Location: Doha, DOHA
Elevation: 69 ft
Nearby Weather Stations

Elev 69 ft 25.26 °N, 51.46 °E | Updated 5 minutes ago

Clear
Clear
83.7 °F
Feels Like 91 °F
N
0.0
Wind Variable Wind from South
Gusts 2.2 mph

Today
High -- | Low -- °F
--% Chance of Precip.
Yesterday
High -- | Low -- °F
Precip. -- in
5:35 AM 5:02 PM
Waning Crescent, 8% visible
Pressure 29.92 in
Visibility -9999.0 miles
Clouds
Heat Index 91 °F
Dew Point 75 °F
Humidity 75%
Rainfall 0.00 in
Snow Depth Not available.
UV Not available.
Pollen Not available.
Air Quality Not available.
Flu Activity Not available.
METAR OTBD 210200Z 14002KT CAVOK 28/23 Q1013 NOSIG

More Conditions Fewer Conditions

Pressure 29.92 in
Visibility -9999.0 miles
Clouds
Heat Index 91 °F
Dew Point 75 °F
Humidity 75%
Rainfall 0.00 in
Snow Depth Not available.
UV Not available.
Pollen Not available.
Air Quality Not available.
Flu Activity Not available.
METAR OTBD 210200Z 14002KT CAVOK 28/23 Q1013 NOSIG

More Conditions Fewer Conditions

10-Day Weather Forecast

Almanac

Astronomy

Oct. 21, 2014 Rise Set
Actual Time 5:35 AM AST 5:02 PM AST
Civil Twilight 5:12 AM AST 5:25 PM AST
Nautical Twilight 4:45 AM AST 5:52 PM AST
Astronomical Twilight 4:19 AM AST 6:19 PM AST
Moon 3:13 AM AST 3:31 PM AST
Length of Visible Light 12h 13m
Length of Day
11h 26m
Tomorrow will be 1m 23s shorter.
Waning Crescent, 8% of the Moon is Illuminated
Oct 20
Waning Crescent
Oct 23
New
Oct 30
First Quarter
Nov 6
Full
Nov 14
Last Quarter

Yesterday's Extremes

Country Highs Country Lows

Community

WunderPhotos

Upload Photos

1,763,575 photos uploaded!

Nearby

Snow Depth

Not available.

Earthquake Activity

City Distance Mag. Time & Date
No recent earthquake activity has been reported nearby.
Minimum magnitude displayed is 2.5.

Coastal Water Temperatures

Place Temperature
No Stations Reporting

Nearby Weather Stations